Time;durP1;ratioP1;P1;durP2;ratioP2;P2;SDS_P1;SDS_P2;PMS_P1;PMS_P2;Temp;Humidity;BMP_temperature;BMP_pressure;BME280_temperature;BME280_humidity;BME280_pressure;Samples;Min_cycle;Max_cycle;Signal;HPM_P1;HPM_P2
2021/01/06 00:01:11;;;;;;;4.38;2.75;;;;;;;4.19;100.00;101274.69;4977940;28;21094;-79
2021/01/06 00:03:37;;;;;;;6.72;3.00;;;;;;;4.17;100.00;101268.88;4957501;28;20172;-78
2021/01/06 00:06:08;;;;;;;8.45;3.25;;;;;;;4.18;100.00;101271.22;4959962;28;20526;-78
2021/01/06 00:08:35;;;;;;;5.82;3.30;;;;;;;4.18;100.00;101270.47;4957182;28;20030;-78
2021/01/06 00:11:01;;;;;;;3.75;2.72;;;;;;;4.08;100.00;101270.66;4951937;28;20038;-78
2021/01/06 00:13:27;;;;;;;8.18;3.10;;;;;;;4.03;100.00;101268.06;4958296;28;20383;-78
2021/01/06 00:15:54;;;;;;;4.90;2.85;;;;;;;3.94;100.00;101277.84;4955684;28;20043;-78
2021/01/06 00:18:20;;;;;;;4.80;3.00;;;;;;;3.85;100.00;101260.97;4951344;28;20034;-78
2021/01/06 00:20:47;;;;;;;5.55;2.75;;;;;;;3.81;100.00;101263.44;4955797;28;20039;-78
2021/01/06 00:23:13;;;;;;;5.22;3.25;;;;;;;3.84;100.00;101265.50;4961205;28;20038;-79
2021/01/06 00:25:41;;;;;;;8.90;3.40;;;;;;;3.98;100.00;101268.97;4942500;28;20480;-79
2021/01/06 00:28:09;;;;;;;5.97;3.35;;;;;;;3.93;100.00;101257.63;4961257;28;20069;-78
2021/01/06 00:30:40;;;;;;;5.50;3.03;;;;;;;3.90;100.00;101260.88;4958387;28;20483;-79
2021/01/06 00:33:09;;;;;;;5.03;3.15;;;;;;;3.93;100.00;101252.31;4969970;28;20046;-79
2021/01/06 00:35:35;;;;;;;5.53;2.83;;;;;;;3.92;100.00;101258.69;4955833;28;20385;-79
2021/01/06 00:38:01;;;;;;;7.15;3.05;;;;;;;3.96;100.00;101260.50;4946619;28;20124;-78
2021/01/06 00:40:29;;;;;;;9.70;3.05;;;;;;;3.91;100.00;101270.47;4975867;28;20046;-78
2021/01/06 00:42:56;;;;;;;5.90;2.95;;;;;;;4.01;100.00;101259.59;5028480;23;20098;-77
2021/01/06 00:45:22;;;;;;;6.43;2.90;;;;;;;4.02;100.00;101259.31;4995268;28;20034;-76
2021/01/06 00:47:48;;;;;;;5.97;3.08;;;;;;;3.97;100.00;101255.97;4959626;28;20041;-76
2021/01/06 00:50:13;;;;;;;5.40;3.08;;;;;;;4.06;100.00;101246.97;4958406;28;20038;-77
2021/01/06 00:52:39;;;;;;;6.35;3.05;;;;;;;4.03;100.00;101244.09;4953467;28;20022;-76
2021/01/06 00:55:05;;;;;;;5.10;3.33;;;;;;;4.05;100.00;101250.72;4966422;28;20031;-76
2021/01/06 00:57:31;;;;;;;5.00;3.15;;;;;;;4.05;100.00;101245.38;4954397;28;20038;-77
2021/01/06 00:59:56;;;;;;;6.40;3.28;;;;;;;4.04;100.00;101246.50;4973153;28;20402;-76
2021/01/06 01:02:23;;;;;;;4.90;3.08;;;;;;;4.03;100.00;101242.22;4950059;28;20092;-76
2021/01/06 01:04:49;;;;;;;8.32;3.65;;;;;;;3.99;100.00;101243.91;4975072;28;20031;-77
2021/01/06 01:07:15;;;;;;;5.25;3.15;;;;;;;3.97;100.00;101245.31;4963316;28;20124;-77
2021/01/06 01:09:40;;;;;;;3.70;2.95;;;;;;;3.89;100.00;101238.00;4952616;28;20073;-77
2021/01/06 01:12:08;;;;;;;5.93;3.40;;;;;;;3.93;100.00;101237.09;4971728;28;20481;-76
2021/01/06 01:14:33;;;;;;;7.38;3.35;;;;;;;3.77;100.00;101235.03;4973854;28;20023;-77
2021/01/06 01:17:01;;;;;;;6.00;3.38;;;;;;;3.88;100.00;101237.19;4999718;28;20387;-77
2021/01/06 01:19:26;;;;;;;8.07;3.58;;;;;;;3.92;100.00;101224.06;4972106;28;20066;-75
2021/01/06 01:21:52;;;;;;;5.72;2.97;;;;;;;3.99;100.00;101229.81;4966423;28;20066;-77
2021/01/06 01:24:17;;;;;;;6.20;3.85;;;;;;;3.86;100.00;101227.91;4975169;28;20483;-77
2021/01/06 01:26:43;;;;;;;8.98;3.33;;;;;;;3.88;100.00;101223.09;4974039;28;20494;-77
2021/01/06 01:29:09;;;;;;;6.57;3.50;;;;;;;3.82;100.00;101224.25;4986551;28;20034;-76
2021/01/06 01:31:36;;;;;;;6.97;3.63;;;;;;;3.81;100.00;101220.03;4969207;28;20387;-76
2021/01/06 01:34:03;;;;;;;4.85;2.95;;;;;;;3.81;100.00;101217.38;4978195;28;20550;-77
2021/01/06 01:36:30;;;;;;;8.25;3.67;;;;;;;3.89;100.00;101224.69;4974982;28;20517;-77
2021/01/06 01:38:56;;;;;;;4.82;3.05;;;;;;;3.73;100.00;101226.03;4958865;28;20041;-77
2021/01/06 01:41:24;;;;;;;6.05;3.45;;;;;;;3.62;100.00;101212.91;4970101;28;20030;-77
2021/01/06 01:43:50;;;;;;;5.60;3.20;;;;;;;3.73;100.00;101215.38;4971051;28;20140;-76
2021/01/06 01:46:27;;;;;;;6.05;3.00;;;;;;;3.77;100.00;101222.50;4998903;28;20523;-77
2021/01/06 01:49:13;;;;;;;8.25;3.55;;;;;;;3.89;100.00;101219.34;4963833;28;20038;-76
2021/01/06 01:51:45;;;;;;;4.20;3.10;;;;;;;3.86;100.00;101219.94;4930248;29;20051;-77
2021/01/06 01:54:14;;;;;;;5.38;3.10;;;;;;;3.72;100.00;101213.81;4923843;29;20052;-77
2021/01/06 01:57:27;;;;;;;5.85;3.25;;;;;;;3.76;100.00;101215.59;4903932;29;20070;-77
2021/01/06 02:00:09;;;;;;;5.22;3.20;;;;;;;3.68;100.00;101205.59;4884504;29;20044;-77
2021/01/06 02:03:04;;;;;;;5.80;3.33;;;;;;;3.78;100.00;101208.09;4933170;29;20047;-76
2021/01/06 02:05:38;;;;;;;5.43;3.20;;;;;;;3.85;100.00;101200.50;4929734;29;20050;-77
2021/01/06 02:08:17;;;;;;;5.78;3.05;;;;;;;3.90;100.00;101204.94;4919584;29;20733;-77
2021/01/06 02:11:00;;;;;;;5.53;3.30;;;;;;;3.85;100.00;101194.38;4933642;29;20480;-77
2021/01/06 02:13:33;;;;;;;5.72;3.03;;;;;;;3.86;100.00;101193.28;4931896;29;20676;-77
2021/01/06 02:16:27;;;;;;;11.18;3.50;;;;;;;3.82;100.00;101194.97;4919204;29;20632;-77
2021/01/06 02:18:53;;;;;;;5.80;3.40;;;;;;;3.59;100.00;101186.88;4926063;29;20200;-77
2021/01/06 02:21:25;;;;;;;8.32;3.30;;;;;;;3.64;100.00;101180.66;4922032;29;20128;-77
2021/01/06 02:23:52;;;;;;;4.85;3.25;;;;;;;3.66;100.00;101189.13;4906399;29;20042;-77
2021/01/06 02:26:20;;;;;;;5.45;3.28;;;;;;;3.56;100.00;101178.69;4919427;29;20032;-76
2021/01/06 02:28:47;;;;;;;5.05;3.35;;;;;;;3.65;100.00;101177.72;4945461;28;20096;-77
2021/01/06 02:31:14;;;;;;;5.20;3.13;;;;;;;3.67;100.00;101175.56;4978836;28;20843;-77
2021/01/06 02:33:40;;;;;;;7.35;3.20;;;;;;;3.67;100.00;101175.56;4961734;28;20517;-77
2021/01/06 02:36:06;;;;;;;9.20;3.95;;;;;;;3.62;100.00;101177.50;5004491;28;20034;-76
2021/01/06 02:38:32;;;;;;;6.05;3.38;;;;;;;3.71;100.00;101164.28;4980403;28;20050;-77
2021/01/06 02:40:58;;;;;;;7.22;3.28;;;;;;;3.78;100.00;101170.81;4968588;28;20018;-77
2021/01/06 02:43:25;;;;;;;9.20;3.83;;;;;;;3.80;100.00;101173.16;4967045;28;20034;-77
2021/01/06 02:45:51;;;;;;;5.40;3.42;;;;;;;3.74;100.00;101169.03;4976375;28;20045;-77
2021/01/06 02:48:17;;;;;;;5.35;3.30;;;;;;;3.47;100.00;101159.16;4988995;28;20033;-77
2021/01/06 02:50:45;;;;;;;4.85;3.40;;;;;;;3.61;100.00;101162.63;4978733;28;20026;-77
2021/01/06 02:53:16;;;;;;;4.50;3.28;;;;;;;3.66;100.00;101162.50;4993363;28;20085;-77
2021/01/06 02:55:46;;;;;;;4.60;2.80;;;;;;;3.58;100.00;101155.25;4963722;28;20044;-77
2021/01/06 02:58:16;;;;;;;4.90;3.45;;;;;;;3.66;100.00;101168.63;4980740;28;20054;-77
2021/01/06 03:00:42;;;;;;;6.05;3.08;;;;;;;3.66;100.00;101162.50;4971460;28;20034;-77
2021/01/06 03:03:11;;;;;;;5.75;3.40;;;;;;;3.66;100.00;101163.31;4976803;28;20081;-77
2021/01/06 03:05:40;;;;;;;5.95;3.53;;;;;;;3.48;100.00;101156.19;4960723;28;20066;-77
2021/01/06 03:08:09;;;;;;;5.70;3.30;;;;;;;3.37;100.00;101160.13;4970144;28;20034;-77
2021/01/06 03:10:35;;;;;;;5.57;3.50;;;;;;;3.51;100.00;101150.28;4968296;28;20037;-77
2021/01/06 03:13:00;;;;;;;5.72;3.45;;;;;;;3.60;100.00;101151.19;4979465;28;20399;-77
2021/01/06 03:15:28;;;;;;;6.20;3.40;;;;;;;3.73;100.00;101149.63;4970200;28;20148;-77
2021/01/06 03:17:54;;;;;;;5.57;3.35;;;;;;;3.81;100.00;101143.59;4994654;28;20034;-77
2021/01/06 03:20:31;;;;;;;8.63;3.95;;;;;;;3.66;100.00;101143.88;4996296;28;20582;-77
2021/01/06 03:23:02;;;;;;;6.35;3.67;;;;;;;3.75;100.00;101141.31;4987405;28;20038;-77
2021/01/06 03:25:28;;;;;;;;;;;;;;;3.78;100.00;101141.50;4981904;28;20034;-77
2021/01/06 03:27:56;;;;;;;4.82;3.45;;;;;;;3.66;100.00;101131.34;4978572;28;20005;-77
2021/01/06 03:30:25;;;;;;;6.07;3.85;;;;;;;3.68;100.00;101128.41;4965628;28;20053;-77
2021/01/06 03:33:06;;;;;;;8.45;3.80;;;;;;;3.76;100.00;101129.56;4959809;28;20053;-77
2021/01/06 03:35:42;;;;;;;7.93;4.05;;;;;;;3.77;100.00;101131.16;4985155;28;20445;-75
2021/01/06 03:38:22;;;;;;;9.15;4.00;;;;;;;3.70;100.00;101136.09;4999294;28;20368;-76
2021/01/06 03:40:52;;;;;;;7.57;3.93;;;;;;;3.78;100.00;101128.19;4975827;28;20113;-76
2021/01/06 03:43:18;;;;;;;7.47;4.25;;;;;;;3.64;100.00;101127.41;4958554;28;20297;-76
2021/01/06 03:45:54;;;;;;;6.90;4.28;;;;;;;3.63;100.00;101118.66;4968850;28;20030;-76
2021/01/06 03:48:50;;;;;;;7.50;4.13;;;;;;;3.60;100.00;101121.88;4989873;28;20053;-76
2021/01/06 03:51:42;;;;;;;7.03;4.30;;;;;;;3.62;100.00;101113.59;4966649;28;20045;-76
2021/01/06 03:54:34;;;;;;;9.15;4.43;;;;;;;3.69;100.00;101108.69;4992083;28;20030;-76
2021/01/06 03:57:02;;;;;;;7.78;4.30;;;;;;;3.73;100.00;101108.88;5001963;28;20038;-77
2021/01/06 03:59:33;;;;;;;6.85;4.40;;;;;;;3.65;100.00;101105.84;4991277;28;20414;-75
2021/01/06 04:02:08;;;;;;;6.47;4.05;;;;;;;3.68;100.00;101101.78;4974815;28;20041;-76
2021/01/06 04:05:12;;;;;;;8.20;4.28;;;;;;;3.68;100.00;101094.56;4988797;28;20597;-76
2021/01/06 04:07:53;;;;;;;11.18;4.35;;;;;;;3.77;100.00;101101.88;4930495;28;20054;-76
2021/01/06 04:10:25;;;;;;;7.45;4.43;;;;;;;3.79;100.00;101102.38;4991428;28;20038;-76
2021/01/06 04:12:50;;;;;;;10.27;4.55;;;;;;;3.78;100.00;101095.44;4972447;28;20157;-76
2021/01/06 04:15:16;;;;;;;7.50;4.15;;;;;;;3.84;100.00;101099.59;4971166;28;20515;-76
2021/01/06 04:17:46;;;;;;;6.65;4.45;;;;;;;3.74;100.00;101099.78;4989153;28;20038;-76
2021/01/06 04:20:27;;;;;;;6.82;4.10;;;;;;;3.70;100.00;101093.50;4988704;28;20034;-76
2021/01/06 04:22:55;;;;;;;9.32;4.25;;;;;;;3.67;100.00;101087.69;4972473;28;20388;-76
2021/01/06 04:25:32;;;;;;;8.50;4.85;;;;;;;3.67;100.00;101090.34;4989717;28;20076;-76
2021/01/06 04:28:14;;;;;;;8.77;4.63;;;;;;;3.67;100.00;101084.22;4972038;28;20034;-76
2021/01/06 04:30:50;;;;;;;6.45;4.25;;;;;;;3.85;100.00;101077.22;4973708;28;20038;-76
2021/01/06 04:33:16;;;;;;;8.80;4.05;;;;;;;3.67;100.00;101084.22;4991680;28;20044;-76
2021/01/06 04:35:42;;;;;;;8.70;4.93;;;;;;;3.77;100.00;101080.56;4973670;28;20121;-76
2021/01/06 04:38:07;;;;;;;9.57;4.72;;;;;;;3.62;100.00;101079.78;4956757;28;20035;-75
2021/01/06 04:40:40;;;;;;;6.28;4.22;;;;;;;3.67;100.00;101077.03;4967880;28;20106;-75
2021/01/06 04:43:40;;;;;;;8.57;4.85;;;;;;;3.67;100.00;101069.06;4974476;28;20118;-76
2021/01/06 04:46:42;;;;;;;8.73;4.60;;;;;;;3.68;100.00;101065.28;4929465;29;20090;-76
2021/01/06 04:49:10;;;;;;;8.88;4.70;;;;;;;3.68;100.00;101059.97;4931021;29;20085;-76
2021/01/06 04:51:52;;;;;;;9.98;5.15;;;;;;;3.79;100.00;101054.44;4931546;29;20568;-76
2021/01/06 04:54:20;;;;;;;8.43;4.68;;;;;;;3.84;100.00;101056.97;4915171;29;20409;-76
2021/01/06 04:57:02;;;;;;;9.70;5.05;;;;;;;3.57;100.00;101053.28;4930646;29;20047;-75
2021/01/06 04:59:32;;;;;;;8.98;5.03;;;;;;;3.59;100.00;101039.66;4905072;29;20052;-76
2021/01/06 05:02:04;;;;;;;7.88;4.35;;;;;;;3.66;100.00;101048.81;4916063;29;20050;-76
2021/01/06 05:05:11;;;;;;;9.75;4.95;;;;;;;3.63;100.00;101041.44;4932964;29;20035;-76
2021/01/06 05:07:55;;;;;;;7.60;4.32;;;;;;;3.81;100.00;101044.25;4893803;29;20072;-76
2021/01/06 05:10:26;;;;;;;8.60;4.57;;;;;;;3.83;100.00;101042.09;4921325;29;20046;-76
2021/01/06 05:12:55;;;;;;;;;;;;;;;3.70;100.00;101034.94;4917627;29;20102;-76
2021/01/06 05:15:34;;;;;;;8.05;4.78;;;;;;;3.61;100.00;101029.50;4938483;29;19922;-76
2021/01/06 05:18:01;;;;;;;9.07;5.28;;;;;;;3.58;100.00;101035.44;4923399;29;20039;-76
2021/01/06 05:20:26;;;;;;;8.00;4.88;;;;;;;3.61;100.00;101035.63;4911317;29;20044;-76
2021/01/06 05:22:52;;;;;;;9.70;4.50;;;;;;;3.67;100.00;101037.09;4938291;28;20048;-76
2021/01/06 05:25:18;;;;;;;9.25;4.93;;;;;;;3.79;100.00;101025.13;4972426;28;20401;-76
2021/01/06 05:27:46;;;;;;;9.15;5.30;;;;;;;3.73;100.00;101031.66;4974207;28;20042;-75
2021/01/06 05:30:26;;;;;;;10.65;4.97;;;;;;;3.58;100.00;101017.56;4962537;28;20470;-76
2021/01/06 05:33:03;;;;;;;8.57;5.10;;;;;;;3.64;100.00;101019.03;4999904;28;20034;-76
2021/01/06 05:35:36;;;;;;;8.20;5.03;;;;;;;3.68;100.00;101014.69;4976776;28;20034;-76
2021/01/06 05:38:02;;;;;;;8.93;4.82;;;;;;;3.58;100.00;101017.56;4967675;28;20038;-76
2021/01/06 05:40:31;;;;;;;8.32;5.13;;;;;;;3.64;100.00;101013.72;4980600;28;20038;-76
2021/01/06 05:43:18;;;;;;;9.32;5.13;;;;;;;3.70;100.00;101013.63;4971463;28;20472;-75
2021/01/06 05:45:56;;;;;;;11.45;5.40;;;;;;;3.67;100.00;101015.00;4966621;28;20104;-76
2021/01/06 05:48:46;;;;;;;7.50;5.07;;;;;;;3.66;100.00;101014.22;4956833;28;20118;-76
2021/01/06 05:51:18;;;;;;;8.68;5.25;;;;;;;3.61;100.00;101006.34;4973374;28;20042;-76
2021/01/06 05:54:01;;;;;;;8.20;5.15;;;;;;;3.70;100.00;101014.41;4974772;28;20490;-76
2021/01/06 05:56:56;;;;;;;9.20;5.15;;;;;;;3.74;100.00;101014.56;4985949;28;20044;-76
2021/01/06 05:59:46;;;;;;;8.40;5.38;;;;;;;3.71;100.00;101009.88;4975153;28;20498;-76
2021/01/06 06:02:14;;;;;;;9.07;5.15;;;;;;;3.61;100.00;101013.53;4992342;28;20053;-76
2021/01/06 06:04:58;;;;;;;9.20;5.05;;;;;;;3.65;100.00;101010.00;4980190;28;20030;-76
2021/01/06 06:07:34;;;;;;;8.07;4.85;;;;;;;3.61;100.00;101005.56;4953107;28;20073;-75
2021/01/06 06:10:02;;;;;;;9.60;5.60;;;;;;;3.47;100.00;100999.47;4969131;28;20034;-75
2021/01/06 06:12:37;;;;;;;9.75;5.18;;;;;;;3.51;100.00;100998.56;4960844;28;20035;-76
2021/01/06 06:15:13;;;;;;;7.72;4.68;;;;;;;3.40;100.00;100999.09;4995188;28;20092;-75
2021/01/06 06:17:57;;;;;;;9.27;5.45;;;;;;;3.51;100.00;100995.13;4959346;28;20704;-76
2021/01/06 06:20:53;;;;;;;9.38;5.68;;;;;;;3.35;100.00;100991.97;4958112;28;20034;-76
2021/01/06 06:23:32;;;;;;;10.25;5.28;;;;;;;3.28;100.00;100996.13;4988360;28;20035;-76
2021/01/06 06:26:17;;;;;;;10.13;4.88;;;;;;;3.30;100.00;100986.78;4996366;28;20035;-75
2021/01/06 06:29:10;;;;;;;11.88;5.78;;;;;;;3.38;100.00;100994.06;4992959;28;20027;-76
2021/01/06 06:31:36;;;;;;;10.07;5.80;;;;;;;3.37;100.00;100979.16;4974455;28;20491;-75
2021/01/06 06:34:07;;;;;;;11.98;5.65;;;;;;;3.42;100.00;100992.38;4976353;28;20388;-76
2021/01/06 06:36:36;;;;;;;9.35;5.50;;;;;;;3.37;100.00;100989.81;4980586;28;20120;-76
2021/01/06 06:39:26;;;;;;;11.40;5.82;;;;;;;3.38;100.00;100983.41;4979944;28;20506;-75
2021/01/06 06:41:55;;;;;;;11.88;5.53;;;;;;;3.14;100.00;100985.50;4977451;28;20801;-75
2021/01/06 06:44:25;;;;;;;11.90;6.05;;;;;;;3.13;100.00;100981.28;4959493;28;20037;-76
2021/01/06 06:46:58;;;;;;;10.88;5.20;;;;;;;3.18;100.00;100978.50;4937939;23;20201;-81
2021/01/06 06:49:55;;;;;;;9.80;4.88;;;;;;;3.09;100.00;100977.63;4925553;29;20519;-80
2021/01/06 06:52:30;;;;;;;12.57;5.18;;;;;;;3.24;100.00;100981.84;4938356;29;20032;-78
2021/01/06 06:55:25;;;;;;;10.90;5.88;;;;;;;3.23;100.00;100973.06;4937812;29;20031;-81
2021/01/06 06:57:57;;;;;;;12.10;5.88;;;;;;;3.24;100.00;100979.19;4926401;29;20039;-79
2021/01/06 07:00:25;;;;;;;8.05;5.18;;;;;;;3.17;100.00;100974.28;4938917;29;20035;-79
2021/01/06 07:02:55;;;;;;;11.00;5.85;;;;;;;3.19;100.00;100988.09;4912836;29;20059;-80
2021/01/06 07:05:29;;;;;;;9.43;5.75;;;;;;;3.07;100.00;100976.34;4909499;29;20050;-79
2021/01/06 07:08:01;;;;;;;11.85;6.40;;;;;;;3.03;100.00;100984.13;4914580;29;20369;-79
2021/01/06 07:10:30;;;;;;;11.45;5.60;;;;;;;3.02;100.00;100977.22;4930682;29;20038;-79
2021/01/06 07:13:07;;;;;;;10.43;5.57;;;;;;;3.02;100.00;100979.13;4931491;29;20555;-80
2021/01/06 07:15:42;;;;;;;11.18;5.85;;;;;;;2.93;100.00;100979.00;4931364;29;20054;-79
2021/01/06 07:18:36;;;;;;;10.85;5.88;;;;;;;2.93;100.00;100978.22;4912946;29;20063;-80
2021/01/06 07:21:17;;;;;;;10.90;5.35;;;;;;;3.06;100.00;100980.09;4916303;29;20032;-79
2021/01/06 07:24:00;;;;;;;10.18;5.55;;;;;;;2.98;100.00;100968.25;4941481;29;20034;-80
2021/01/06 07:26:29;;;;;;;11.02;5.68;;;;;;;3.00;100.00;100971.41;4924120;29;20047;-79
2021/01/06 07:29:04;;;;;;;11.38;6.15;;;;;;;3.00;100.00;100968.75;4915961;29;20039;-80
2021/01/06 07:31:38;;;;;;;9.05;5.20;;;;;;;3.01;100.00;100970.34;4925509;29;20407;-80
2021/01/06 07:34:06;;;;;;;9.63;5.50;;;;;;;2.92;100.00;100972.13;4908956;29;20039;-80
2021/01/06 07:36:46;;;;;;;10.88;6.15;;;;;;;2.94;100.00;100967.31;4942389;29;20617;-80
2021/01/06 07:39:42;;;;;;;10.18;5.82;;;;;;;2.99;100.00;100964.53;4920346;29;20039;-79
2021/01/06 07:42:31;;;;;;;11.07;5.40;;;;;;;3.03;100.00;100967.38;4880376;29;20476;-80
2021/01/06 07:45:27;;;;;;;13.27;5.78;;;;;;;3.05;100.00;100970.53;4867498;29;20070;-82
2021/01/06 07:48:07;;;;;;;10.07;4.82;;;;;;;2.97;100.00;100969.34;4879028;29;20079;-80
2021/01/06 07:50:34;;;;;;;9.48;5.00;;;;;;;2.78;100.00;100968.66;4879140;29;20037;-80
2021/01/06 07:53:09;;;;;;;11.63;5.07;;;;;;;2.83;100.00;100968.56;4869300;29;20049;-80
2021/01/06 07:55:56;;;;;;;12.35;5.47;;;;;;;2.90;100.00;100961.00;4880985;29;20052;-80
2021/01/06 07:58:32;;;;;;;10.20;5.28;;;;;;;2.97;100.00;100965.91;4863544;29;20049;-80
2021/01/06 08:01:36;;;;;;;10.15;5.57;;;;;;;3.00;100.00;100975.97;4863273;29;20045;-81
2021/01/06 08:04:31;;;;;;;10.48;5.43;;;;;;;2.91;100.00;100959.09;4870032;29;20039;-81
2021/01/06 08:07:05;;;;;;;10.32;4.85;;;;;;;2.88;100.00;100960.50;4869282;29;20037;-80
2021/01/06 08:09:51;;;;;;;10.70;5.53;;;;;;;2.85;100.00;100958.41;4876875;29;20037;-80
2021/01/06 08:12:40;;;;;;;9.15;4.95;;;;;;;2.91;100.00;100959.09;4876379;29;20048;-79
2021/01/06 08:15:17;;;;;;;11.02;5.45;;;;;;;2.83;100.00;100962.47;4866096;29;20029;-78
2021/01/06 08:17:49;;;;;;;9.15;5.03;;;;;;;2.75;100.00;100961.25;4881467;29;20056;-79
2021/01/06 08:20:26;;;;;;;9.38;5.35;;;;;;;2.87;100.00;100961.56;4906035;29;20080;-82
2021/01/06 08:22:57;;;;;;;7.68;4.82;;;;;;;2.99;100.00;100961.88;4916598;29;20036;-80
2021/01/06 08:25:33;;;;;;;9.35;5.22;;;;;;;2.90;100.00;100960.19;4931166;29;20090;-81
2021/01/06 08:27:59;;;;;;;11.05;5.20;;;;;;;2.91;100.00;100954.59;4913028;29;20035;-79
2021/01/06 08:30:29;;;;;;;10.43;5.68;;;;;;;2.91;100.00;100948.47;4923482;29;20040;-80
2021/01/06 08:33:06;;;;;;;10.13;5.13;;;;;;;2.84;100.00;100946.22;4911962;29;20122;-80
2021/01/06 08:35:36;;;;;;;8.75;5.07;;;;;;;2.86;100.00;100946.72;4938159;29;20058;-80
2021/01/06 08:38:23;;;;;;;8.38;4.82;;;;;;;2.79;100.00;100929.59;4920619;29;20411;-79
2021/01/06 08:40:48;;;;;;;7.10;4.55;;;;;;;2.80;100.00;100937.25;4876323;29;20092;-79
2021/01/06 08:43:14;;;;;;;17.08;4.85;;;;;;;2.96;100.00;100938.50;4884039;29;20044;-78
2021/01/06 08:45:54;;;;;;;8.23;4.30;;;;;;;2.96;100.00;100932.44;4885241;29;20080;-80
2021/01/06 08:48:27;;;;;;;7.13;4.55;;;;;;;2.95;100.00;100930.84;4893561;29;20062;-77
2021/01/06 08:51:04;;;;;;;6.93;4.57;;;;;;;2.90;100.00;100931.75;4877836;29;20135;-77
2021/01/06 08:53:33;;;;;;;6.85;4.18;;;;;;;2.94;100.00;100937.25;4890360;29;20037;-78
2021/01/06 08:56:02;;;;;;;7.18;4.75;;;;;;;2.96;100.00;100930.53;4876672;29;20048;-80
2021/01/06 08:58:46;;;;;;;8.32;5.00;;;;;;;2.98;100.00;100933.69;4892167;29;20049;-77
2021/01/06 09:01:21;;;;;;;6.63;4.03;;;;;;;3.01;100.00;100930.44;4894331;29;20052;-79
2021/01/06 09:04:22;;;;;;;7.85;4.60;;;;;;;3.03;100.00;100920.31;4890283;29;20192;-78
2021/01/06 09:07:07;;;;;;;7.15;4.43;;;;;;;2.96;100.00;100933.19;4834568;29;20075;-79
2021/01/06 09:10:00;;;;;;;7.90;4.35;;;;;;;2.93;100.00;100920.50;4894652;29;20401;-79
2021/01/06 09:12:28;;;;;;;9.25;4.38;;;;;;;2.92;100.00;100920.81;4897270;29;20360;-80
2021/01/06 09:14:58;;;;;;;8.70;4.55;;;;;;;2.95;100.00;100914.88;4888766;29;20040;-81
2021/01/06 09:17:40;;;;;;;6.47;4.22;;;;;;;3.06;100.00;100918.94;4901012;29;20062;-81
2021/01/06 09:20:12;;;;;;;7.10;4.03;;;;;;;3.03;100.00;100920.31;4909535;29;20234;-79
2021/01/06 09:22:38;;;;;;;8.13;4.10;;;;;;;3.02;100.00;100918.72;4923025;29;20046;-79
2021/01/06 09:25:05;;;;;;;6.50;3.65;;;;;;;3.03;100.00;100907.00;4940807;29;20106;-80
2021/01/06 09:27:38;;;;;;;6.70;3.72;;;;;;;3.12;100.00;100912.41;4915031;29;20019;-80
2021/01/06 09:30:11;;;;;;;5.90;3.88;;;;;;;3.14;100.00;100903.03;4921546;29;20043;-80
2021/01/06 09:32:38;;;;;;;6.72;4.10;;;;;;;3.06;100.00;100903.75;4925990;29;20047;-79
2021/01/06 09:35:10;;;;;;;6.45;4.32;;;;;;;3.02;100.00;100900.09;4934933;29;20083;-79
2021/01/06 09:37:37;;;;;;;5.25;3.75;;;;;;;3.00;100.00;100898.84;4921467;29;20506;-79
2021/01/06 09:40:16;;;;;;;5.43;3.65;;;;;;;3.02;100.00;100899.34;4922609;29;20039;-79
2021/01/06 09:42:43;;;;;;;7.63;4.07;;;;;;;3.03;100.00;100896.38;4946100;29;20039;-81
2021/01/06 09:45:28;;;;;;;6.60;3.92;;;;;;;3.16;100.00;100897.41;4914601;29;20063;-81
2021/01/06 09:48:01;;;;;;;7.50;4.28;;;;;;;3.14;100.00;100895.06;4926900;29;20599;-81
2021/01/06 09:50:53;;;;;;;7.95;3.80;;;;;;;3.12;100.00;100885.78;4942793;29;20122;-81
2021/01/06 09:53:23;;;;;;;7.72;3.92;;;;;;;3.07;100.00;100893.91;4881902;29;20077;-80
2021/01/06 09:55:52;;;;;;;8.00;4.30;;;;;;;3.07;100.00;100888.56;4868404;29;20117;-81
2021/01/06 09:58:35;;;;;;;7.60;4.18;;;;;;;3.06;100.00;100893.09;4885709;29;20079;-81
2021/01/06 10:01:10;;;;;;;9.65;4.35;;;;;;;3.16;100.00;100886.78;4882465;29;20041;-80
2021/01/06 10:03:39;;;;;;;7.60;4.20;;;;;;;3.13;100.00;100888.19;4862139;29;20047;-80
2021/01/06 10:06:11;;;;;;;6.45;4.10;;;;;;;3.17;100.00;100889.16;4859455;29;20037;-80
2021/01/06 10:08:46;;;;;;;8.93;4.65;;;;;;;3.22;100.00;100882.91;4877558;29;20032;-79
2021/01/06 10:11:30;;;;;;;8.25;4.05;;;;;;;3.25;100.00;100877.78;4846696;29;20423;-82
2021/01/06 10:14:24;;;;;;;7.20;4.13;;;;;;;3.16;100.00;100870.81;4881865;29;20029;-81
2021/01/06 10:17:00;;;;;;;6.85;3.75;;;;;;;3.12;100.00;100872.50;4867601;29;20094;-81
2021/01/06 10:19:54;;;;;;;10.27;3.95;;;;;;;3.16;100.00;100868.16;4865778;29;20104;-81
2021/01/06 10:22:39;;;;;;;6.10;4.10;;;;;;;3.12;100.00;100862.66;4862635;29;20410;-81
2021/01/06 10:25:32;;;;;;;6.78;4.05;;;;;;;3.15;100.00;100856.75;4876957;29;20079;-80
2021/01/06 10:28:05;;;;;;;8.55;4.40;;;;;;;3.15;100.00;100847.97;4858567;29;20041;-80
2021/01/06 10:30:33;;;;;;;7.68;4.28;;;;;;;3.21;100.00;100850.22;4903802;29;20055;-80
2021/01/06 10:33:13;;;;;;;6.85;4.10;;;;;;;3.18;100.00;100853.47;4923449;29;20032;-81
2021/01/06 10:36:20;;;;;;;6.97;4.50;;;;;;;3.19;100.00;100849.75;4941751;29;20047;-80
2021/01/06 10:38:46;;;;;;;7.53;4.75;;;;;;;3.21;100.00;100839.59;4909205;29;20098;-80
2021/01/06 10:41:27;;;;;;;7.95;4.75;;;;;;;3.30;100.00;100834.31;4907458;29;20782;-80
2021/01/06 10:44:00;;;;;;;6.95;4.30;;;;;;;3.27;100.00;100829.63;4912941;29;20060;-80
2021/01/06 10:46:42;;;;;;;6.80;4.53;;;;;;;3.29;100.00;100828.19;4929169;29;20091;-80
2021/01/06 10:49:18;;;;;;;6.53;4.20;;;;;;;3.38;100.00;100826.41;4924208;29;20094;-79
2021/01/06 10:51:54;;;;;;;8.57;4.38;;;;;;;3.33;100.00;100826.50;4941352;29;20044;-80
2021/01/06 10:54:45;;;;;;;7.18;4.20;;;;;;;3.34;100.00;100819.31;4908615;29;20067;-80
2021/01/06 10:57:43;;;;;;;7.63;4.55;;;;;;;3.39;100.00;100814.66;4927778;29;20067;-80
2021/01/06 11:00:47;;;;;;;6.90;4.43;;;;;;;3.40;100.00;100797.63;4912654;29;20708;-81
2021/01/06 11:03:39;;;;;;;6.43;4.30;;;;;;;3.48;100.00;100809.41;4915764;29;20138;-80
2021/01/06 11:06:30;;;;;;;6.75;4.15;;;;;;;3.49;100.00;100810.97;4905727;29;20044;-81
2021/01/06 11:09:33;;;;;;;5.67;3.90;;;;;;;3.44;100.00;100803.91;4921647;29;20039;-81
2021/01/06 11:12:21;;;;;;;5.63;3.85;;;;;;;3.47;100.00;100797.97;4906346;29;20095;-80
2021/01/06 11:15:25;;;;;;;5.65;3.78;;;;;;;3.42;100.00;100789.34;4925818;29;20030;-79
2021/01/06 11:18:13;;;;;;;5.90;3.92;;;;;;;3.32;100.00;100790.38;4884977;29;20056;-79
2021/01/06 11:20:42;;;;;;;5.40;3.78;;;;;;;3.37;100.00;100786.78;4879858;29;20121;-80
2021/01/06 11:23:34;;;;;;;4.28;3.35;;;;;;;3.40;100.00;100784.31;4915167;29;20059;-79
2021/01/06 11:26:32;;;;;;;5.18;3.60;;;;;;;3.33;100.00;100778.63;4924820;29;20128;-80
2021/01/06 11:29:11;;;;;;;5.40;3.45;;;;;;;3.44;100.00;100777.31;4915207;29;20043;-78
2021/01/06 11:31:50;;;;;;;4.53;3.53;;;;;;;3.37;100.00;100770.81;4923899;29;20039;-80
2021/01/06 11:34:15;;;;;;;8.02;3.53;;;;;;;3.38;100.00;100764.41;4935758;29;20040;-80
2021/01/06 11:36:58;;;;;;;4.53;3.25;;;;;;;3.35;100.00;100765.00;4922829;29;20115;-79
2021/01/06 11:39:27;;;;;;;4.63;3.35;;;;;;;3.46;100.00;100758.38;4927113;29;20074;-79
2021/01/06 11:42:10;;;;;;;5.70;3.20;;;;;;;3.42;100.00;100752.88;4911806;29;20034;-79
2021/01/06 11:44:41;;;;;;;6.45;3.78;;;;;;;3.36;100.00;100740.78;4907104;29;20697;-81
2021/01/06 11:47:25;;;;;;;4.53;3.13;;;;;;;3.31;100.00;100743.53;4934681;29;20044;-79
2021/01/06 11:50:23;;;;;;;5.18;3.50;;;;;;;3.30;100.00;100735.88;4938134;29;20023;-79
2021/01/06 11:52:50;;;;;;;3.53;2.78;;;;;;;3.37;100.00;100729.03;4927859;29;20051;-79
2021/01/06 11:55:23;;;;;;;5.15;3.40;;;;;;;3.36;100.00;100732.00;4940309;29;20519;-79
2021/01/06 11:57:54;;;;;;;5.10;3.40;;;;;;;3.36;100.00;100726.69;4937634;29;20063;-79
2021/01/06 12:00:39;;;;;;;;;;;;;;;3.33;100.00;100721.97;4920668;29;20234;-80
2021/01/06 12:03:07;;;;;;;5.50;3.33;;;;;;;3.28;100.00;100720.22;4937466;29;19921;-79